sensor_id;sensor_type;location;lat;lon;timestamp;P1;durP1;ratioP1;P2;durP2;ratioP2
71290;SDS011;59073;51.994;4.448;2024-01-15T00:00:18;4.39;;;2.62;;
71290;SDS011;59073;51.994;4.448;2024-01-15T00:02:44;4.75;;;2.82;;
71290;SDS011;59073;51.994;4.448;2024-01-15T00:05:09;4.96;;;2.94;;
71290;SDS011;59073;51.994;4.448;2024-01-15T00:07:35;5.50;;;3.28;;
71290;SDS011;59073;51.994;4.448;2024-01-15T00:10:01;4.49;;;2.72;;
71290;SDS011;59073;51.994;4.448;2024-01-15T00:12:27;4.40;;;2.66;;
71290;SDS011;59073;51.994;4.448;2024-01-15T00:14:53;4.55;;;2.71;;
71290;SDS011;59073;51.994;4.448;2024-01-15T00:17:19;4.90;;;2.93;;
71290;SDS011;59073;51.994;4.448;2024-01-15T00:19:44;5.22;;;3.10;;
71290;SDS011;59073;51.994;4.448;2024-01-15T00:22:09;4.92;;;2.91;;
71290;SDS011;59073;51.994;4.448;2024-01-15T00:24:35;4.75;;;2.79;;
71290;SDS011;59073;51.994;4.448;2024-01-15T00:27:00;4.49;;;2.64;;
71290;SDS011;59073;51.994;4.448;2024-01-15T00:29:26;4.83;;;2.85;;
71290;SDS011;59073;51.994;4.448;2024-01-15T00:31:51;5.62;;;3.34;;
71290;SDS011;59073;51.994;4.448;2024-01-15T00:34:17;4.63;;;2.77;;
71290;SDS011;59073;51.994;4.448;2024-01-15T00:36:42;3.60;;;2.14;;
71290;SDS011;59073;51.994;4.448;2024-01-15T00:39:08;4.10;;;2.41;;
71290;SDS011;59073;51.994;4.448;2024-01-15T00:41:35;3.62;;;2.13;;
71290;SDS011;59073;51.994;4.448;2024-01-15T00:44:01;5.24;;;3.10;;
71290;SDS011;59073;51.994;4.448;2024-01-15T00:46:28;4.56;;;2.70;;
71290;SDS011;59073;51.994;4.448;2024-01-15T00:48:53;4.54;;;2.68;;
71290;SDS011;59073;51.994;4.448;2024-01-15T00:51:19;4.56;;;2.69;;
71290;SDS011;59073;51.994;4.448;2024-01-15T00:53:44;4.71;;;2.79;;
71290;SDS011;59073;51.994;4.448;2024-01-15T00:56:10;5.19;;;3.06;;
71290;SDS011;59073;51.994;4.448;2024-01-15T00:58:35;5.02;;;2.95;;
71290;SDS011;59073;51.994;4.448;2024-01-15T01:01:00;4.72;;;2.75;;
71290;SDS011;59073;51.994;4.448;2024-01-15T01:03:26;5.41;;;3.17;;
71290;SDS011;59073;51.994;4.448;2024-01-15T01:05:51;3.55;;;2.09;;
71290;SDS011;59073;51.994;4.448;2024-01-15T01:08:17;4.40;;;2.63;;
71290;SDS011;59073;51.994;4.448;2024-01-15T01:10:42;5.32;;;3.20;;
71290;SDS011;59073;51.994;4.448;2024-01-15T01:13:08;3.54;;;2.12;;
71290;SDS011;59073;51.994;4.448;2024-01-15T01:15:34;3.58;;;2.13;;
71290;SDS011;59073;51.994;4.448;2024-01-15T01:17:59;3.25;;;1.91;;
71290;SDS011;59073;51.994;4.448;2024-01-15T01:20:25;3.47;;;2.04;;
71290;SDS011;59073;51.994;4.448;2024-01-15T01:22:51;3.84;;;2.28;;
71290;SDS011;59073;51.994;4.448;2024-01-15T01:25:16;3.42;;;2.06;;
71290;SDS011;59073;51.994;4.448;2024-01-15T01:27:41;3.54;;;2.13;;
71290;SDS011;59073;51.994;4.448;2024-01-15T01:30:07;4.25;;;2.54;;
71290;SDS011;59073;51.994;4.448;2024-01-15T01:32:33;4.27;;;2.56;;
71290;SDS011;59073;51.994;4.448;2024-01-15T01:34:59;5.39;;;3.27;;
71290;SDS011;59073;51.994;4.448;2024-01-15T01:37:25;3.59;;;2.20;;
71290;SDS011;59073;51.994;4.448;2024-01-15T01:39:50;3.74;;;2.29;;
71290;SDS011;59073;51.994;4.448;2024-01-15T01:42:15;3.24;;;1.98;;
71290;SDS011;59073;51.994;4.448;2024-01-15T01:44:41;3.75;;;2.28;;
71290;SDS011;59073;51.994;4.448;2024-01-15T01:47:06;3.40;;;2.07;;
71290;SDS011;59073;51.994;4.448;2024-01-15T01:49:32;3.09;;;1.89;;
71290;SDS011;59073;51.994;4.448;2024-01-15T01:52:01;3.64;;;2.22;;
71290;SDS011;59073;51.994;4.448;2024-01-15T01:54:29;4.30;;;2.62;;
71290;SDS011;59073;51.994;4.448;2024-01-15T01:56:57;3.50;;;2.11;;
71290;SDS011;59073;51.994;4.448;2024-01-15T01:59:23;3.76;;;2.26;;
71290;SDS011;59073;51.994;4.448;2024-01-15T02:01:52;3.71;;;2.23;;
71290;SDS011;59073;51.994;4.448;2024-01-15T02:04:19;4.27;;;2.56;;
71290;SDS011;59073;51.994;4.448;2024-01-15T02:06:49;4.26;;;2.51;;
71290;SDS011;59073;51.994;4.448;2024-01-15T02:09:15;4.19;;;2.45;;
71290;SDS011;59073;51.994;4.448;2024-01-15T02:11:42;3.75;;;2.20;;
71290;SDS011;59073;51.994;4.448;2024-01-15T02:14:09;3.50;;;2.06;;
71290;SDS011;59073;51.994;4.448;2024-01-15T02:16:35;3.44;;;2.02;;
71290;SDS011;59073;51.994;4.448;2024-01-15T02:19:00;3.30;;;1.94;;
71290;SDS011;59073;51.994;4.448;2024-01-15T02:21:26;2.08;;;1.23;;
71290;SDS011;59073;51.994;4.448;2024-01-15T02:23:53;2.87;;;1.68;;
71290;SDS011;59073;51.994;4.448;2024-01-15T02:26:20;2.57;;;1.49;;
71290;SDS011;59073;51.994;4.448;2024-01-15T02:28:45;2.68;;;1.54;;
71290;SDS011;59073;51.994;4.448;2024-01-15T02:31:11;2.23;;;1.28;;
71290;SDS011;59073;51.994;4.448;2024-01-15T02:33:37;1.90;;;1.09;;
71290;SDS011;59073;51.994;4.448;2024-01-15T02:36:02;2.91;;;1.67;;
71290;SDS011;59073;51.994;4.448;2024-01-15T02:38:28;2.67;;;1.54;;
71290;SDS011;59073;51.994;4.448;2024-01-15T02:40:53;2.36;;;1.35;;
71290;SDS011;59073;51.994;4.448;2024-01-15T02:43:18;2.05;;;1.18;;
71290;SDS011;59073;51.994;4.448;2024-01-15T02:45:44;1.48;;;0.86;;
71290;SDS011;59073;51.994;4.448;2024-01-15T02:48:10;1.89;;;1.11;;
71290;SDS011;59073;51.994;4.448;2024-01-15T02:50:36;1.78;;;1.05;;
71290;SDS011;59073;51.994;4.448;2024-01-15T02:53:01;1.65;;;0.97;;
71290;SDS011;59073;51.994;4.448;2024-01-15T02:55:27;2.27;;;1.33;;
71290;SDS011;59073;51.994;4.448;2024-01-15T02:57:54;2.31;;;1.34;;
71290;SDS011;59073;51.994;4.448;2024-01-15T03:00:20;2.74;;;1.58;;
71290;SDS011;59073;51.994;4.448;2024-01-15T03:02:45;2.89;;;1.66;;
71290;SDS011;59073;51.994;4.448;2024-01-15T03:05:11;2.52;;;1.45;;
71290;SDS011;59073;51.994;4.448;2024-01-15T03:07:36;2.05;;;1.18;;
71290;SDS011;59073;51.994;4.448;2024-01-15T03:10:02;2.62;;;1.50;;
71290;SDS011;59073;51.994;4.448;2024-01-15T03:12:28;2.27;;;1.31;;
71290;SDS011;59073;51.994;4.448;2024-01-15T03:14:53;2.52;;;1.45;;
71290;SDS011;59073;51.994;4.448;2024-01-15T03:17:19;2.70;;;1.56;;
71290;SDS011;59073;51.994;4.448;2024-01-15T03:19:44;1.91;;;1.11;;
71290;SDS011;59073;51.994;4.448;2024-01-15T03:22:10;2.48;;;1.44;;
71290;SDS011;59073;51.994;4.448;2024-01-15T03:24:35;2.69;;;1.56;;
71290;SDS011;59073;51.994;4.448;2024-01-15T03:27:01;2.25;;;1.31;;
71290;SDS011;59073;51.994;4.448;2024-01-15T03:29:27;1.98;;;1.16;;
71290;SDS011;59073;51.994;4.448;2024-01-15T03:31:53;2.56;;;1.50;;
71290;SDS011;59073;51.994;4.448;2024-01-15T03:34:18;2.16;;;1.26;;
71290;SDS011;59073;51.994;4.448;2024-01-15T03:36:44;3.17;;;1.85;;
71290;SDS011;59073;51.994;4.448;2024-01-15T03:39:10;3.00;;;1.75;;
71290;SDS011;59073;51.994;4.448;2024-01-15T03:41:35;3.61;;;2.10;;
71290;SDS011;59073;51.994;4.448;2024-01-15T03:44:00;2.96;;;1.71;;
71290;SDS011;59073;51.994;4.448;2024-01-15T03:46:26;2.80;;;1.61;;
71290;SDS011;59073;51.994;4.448;2024-01-15T03:48:52;2.75;;;1.58;;
71290;SDS011;59073;51.994;4.448;2024-01-15T03:51:18;3.25;;;1.87;;
71290;SDS011;59073;51.994;4.448;2024-01-15T03:53:43;3.01;;;1.72;;
71290;SDS011;59073;51.994;4.448;2024-01-15T03:56:09;3.30;;;1.89;;
71290;SDS011;59073;51.994;4.448;2024-01-15T03:58:34;3.17;;;1.82;;
71290;SDS011;59073;51.994;4.448;2024-01-15T04:01:00;3.43;;;1.97;;
71290;SDS011;59073;51.994;4.448;2024-01-15T04:03:25;3.54;;;2.05;;
71290;SDS011;59073;51.994;4.448;2024-01-15T04:05:50;3.96;;;2.28;;
71290;SDS011;59073;51.994;4.448;2024-01-15T04:08:16;2.77;;;1.60;;
71290;SDS011;59073;51.994;4.448;2024-01-15T04:10:41;2.57;;;1.48;;
71290;SDS011;59073;51.994;4.448;2024-01-15T04:13:07;2.66;;;1.54;;
71290;SDS011;59073;51.994;4.448;2024-01-15T04:15:32;2.89;;;1.67;;
71290;SDS011;59073;51.994;4.448;2024-01-15T04:17:58;2.23;;;1.29;;
71290;SDS011;59073;51.994;4.448;2024-01-15T04:20:23;2.59;;;1.50;;
71290;SDS011;59073;51.994;4.448;2024-01-15T04:22:49;1.85;;;1.07;;
71290;SDS011;59073;51.994;4.448;2024-01-15T04:25:14;3.22;;;1.86;;
71290;SDS011;59073;51.994;4.448;2024-01-15T04:27:39;2.33;;;1.34;;
71290;SDS011;59073;51.994;4.448;2024-01-15T04:30:05;2.66;;;1.52;;
71290;SDS011;59073;51.994;4.448;2024-01-15T04:32:31;2.67;;;1.53;;
71290;SDS011;59073;51.994;4.448;2024-01-15T04:34:57;4.11;;;2.35;;
71290;SDS011;59073;51.994;4.448;2024-01-15T04:37:22;2.63;;;1.50;;
71290;SDS011;59073;51.994;4.448;2024-01-15T04:39:47;2.78;;;1.59;;
71290;SDS011;59073;51.994;4.448;2024-01-15T04:42:13;1.89;;;1.09;;
71290;SDS011;59073;51.994;4.448;2024-01-15T04:44:39;1.23;;;0.71;;
71290;SDS011;59073;51.994;4.448;2024-01-15T04:47:04;1.46;;;0.84;;
71290;SDS011;59073;51.994;4.448;2024-01-15T04:49:30;1.49;;;0.86;;
71290;SDS011;59073;51.994;4.448;2024-01-15T04:51:55;1.52;;;0.87;;
71290;SDS011;59073;51.994;4.448;2024-01-15T04:54:20;1.66;;;0.96;;
71290;SDS011;59073;51.994;4.448;2024-01-15T04:56:46;1.44;;;0.83;;
71290;SDS011;59073;51.994;4.448;2024-01-15T04:59:12;1.56;;;0.90;;
71290;SDS011;59073;51.994;4.448;2024-01-15T05:01:39;1.20;;;0.70;;
71290;SDS011;59073;51.994;4.448;2024-01-15T05:04:05;1.70;;;0.99;;
71290;SDS011;59073;51.994;4.448;2024-01-15T05:06:30;1.09;;;0.64;;
71290;SDS011;59073;51.994;4.448;2024-01-15T05:08:55;1.19;;;0.69;;
71290;SDS011;59073;51.994;4.448;2024-01-15T05:11:21;1.14;;;0.67;;
71290;SDS011;59073;51.994;4.448;2024-01-15T05:13:46;1.35;;;0.80;;
71290;SDS011;59073;51.994;4.448;2024-01-15T05:16:12;1.48;;;0.88;;
71290;SDS011;59073;51.994;4.448;2024-01-15T05:18:37;1.62;;;0.97;;
71290;SDS011;59073;51.994;4.448;2024-01-15T05:21:03;2.09;;;1.25;;
71290;SDS011;59073;51.994;4.448;2024-01-15T05:23:30;1.51;;;0.90;;
71290;SDS011;59073;51.994;4.448;2024-01-15T05:25:56;2.44;;;1.46;;
71290;SDS011;59073;51.994;4.448;2024-01-15T05:28:22;3.36;;;2.03;;
71290;SDS011;59073;51.994;4.448;2024-01-15T05:30:47;3.70;;;2.29;;
71290;SDS011;59073;51.994;4.448;2024-01-15T05:33:13;1.58;;;0.98;;
71290;SDS011;59073;51.994;4.448;2024-01-15T05:35:38;1.64;;;1.03;;
71290;SDS011;59073;51.994;4.448;2024-01-15T05:38:04;2.07;;;1.29;;
71290;SDS011;59073;51.994;4.448;2024-01-15T05:40:29;1.74;;;1.08;;
71290;SDS011;59073;51.994;4.448;2024-01-15T05:42:55;2.66;;;1.65;;
71290;SDS011;59073;51.994;4.448;2024-01-15T05:45:20;2.56;;;1.58;;
71290;SDS011;59073;51.994;4.448;2024-01-15T05:47:45;3.57;;;2.21;;
71290;SDS011;59073;51.994;4.448;2024-01-15T05:50:11;2.41;;;1.50;;
71290;SDS011;59073;51.994;4.448;2024-01-15T05:52:36;2.33;;;1.45;;
71290;SDS011;59073;51.994;4.448;2024-01-15T05:55:02;2.67;;;1.62;;
71290;SDS011;59073;51.994;4.448;2024-01-15T05:57:27;2.90;;;1.73;;
71290;SDS011;59073;51.994;4.448;2024-01-15T05:59:53;2.81;;;1.70;;
71290;SDS011;59073;51.994;4.448;2024-01-15T06:02:19;2.02;;;1.22;;
71290;SDS011;59073;51.994;4.448;2024-01-15T06:04:45;2.95;;;1.78;;
71290;SDS011;59073;51.994;4.448;2024-01-15T06:07:11;2.41;;;1.45;;
71290;SDS011;59073;51.994;4.448;2024-01-15T06:09:36;2.40;;;1.44;;
71290;SDS011;59073;51.994;4.448;2024-01-15T06:12:03;2.17;;;1.30;;
71290;SDS011;59073;51.994;4.448;2024-01-15T06:14:29;1.56;;;0.93;;
71290;SDS011;59073;51.994;4.448;2024-01-15T06:16:54;1.41;;;0.84;;
71290;SDS011;59073;51.994;4.448;2024-01-15T06:19:20;1.40;;;0.83;;
71290;SDS011;59073;51.994;4.448;2024-01-15T06:21:46;1.39;;;0.83;;
71290;SDS011;59073;51.994;4.448;2024-01-15T06:24:11;0.60;;;0.36;;
71290;SDS011;59073;51.994;4.448;2024-01-15T06:26:38;1.04;;;0.63;;
71290;SDS011;59073;51.994;4.448;2024-01-15T06:29:04;1.29;;;0.78;;
71290;SDS011;59073;51.994;4.448;2024-01-15T06:31:29;1.86;;;1.13;;
71290;SDS011;59073;51.994;4.448;2024-01-15T06:33:55;1.72;;;1.04;;
71290;SDS011;59073;51.994;4.448;2024-01-15T06:36:21;2.18;;;1.31;;
71290;SDS011;59073;51.994;4.448;2024-01-15T06:38:46;2.24;;;1.35;;
71290;SDS011;59073;51.994;4.448;2024-01-15T06:41:12;2.54;;;1.53;;
71290;SDS011;59073;51.994;4.448;2024-01-15T06:43:38;2.03;;;1.22;;
71290;SDS011;59073;51.994;4.448;2024-01-15T06:46:03;1.79;;;1.08;;
71290;SDS011;59073;51.994;4.448;2024-01-15T06:48:29;2.99;;;1.79;;
71290;SDS011;59073;51.994;4.448;2024-01-15T06:50:54;1.99;;;1.20;;
71290;SDS011;59073;51.994;4.448;2024-01-15T06:53:20;1.86;;;1.12;;
71290;SDS011;59073;51.994;4.448;2024-01-15T06:55:45;1.54;;;0.93;;
71290;SDS011;59073;51.994;4.448;2024-01-15T06:58:11;2.36;;;1.44;;
71290;SDS011;59073;51.994;4.448;2024-01-15T07:00:37;2.49;;;1.52;;
71290;SDS011;59073;51.994;4.448;2024-01-15T07:03:03;2.57;;;1.57;;
71290;SDS011;59073;51.994;4.448;2024-01-15T07:05:28;1.87;;;1.15;;
71290;SDS011;59073;51.994;4.448;2024-01-15T07:07:55;2.55;;;1.58;;
71290;SDS011;59073;51.994;4.448;2024-01-15T07:10:21;1.82;;;1.12;;
71290;SDS011;59073;51.994;4.448;2024-01-15T07:12:46;2.37;;;1.46;;
71290;SDS011;59073;51.994;4.448;2024-01-15T07:15:12;2.76;;;1.70;;
71290;SDS011;59073;51.994;4.448;2024-01-15T07:17:38;2.65;;;1.63;;
71290;SDS011;59073;51.994;4.448;2024-01-15T07:20:05;2.39;;;1.46;;
71290;SDS011;59073;51.994;4.448;2024-01-15T07:22:33;2.74;;;1.66;;
71290;SDS011;59073;51.994;4.448;2024-01-15T07:24:59;2.48;;;1.50;;
71290;SDS011;59073;51.994;4.448;2024-01-15T07:27:24;3.18;;;1.93;;
71290;SDS011;59073;51.994;4.448;2024-01-15T07:29:49;2.87;;;1.75;;
71290;SDS011;59073;51.994;4.448;2024-01-15T07:32:15;2.60;;;1.60;;
71290;SDS011;59073;51.994;4.448;2024-01-15T07:34:41;2.62;;;1.62;;
71290;SDS011;59073;51.994;4.448;2024-01-15T07:37:06;3.24;;;1.96;;
71290;SDS011;59073;51.994;4.448;2024-01-15T07:39:32;3.32;;;2.00;;
71290;SDS011;59073;51.994;4.448;2024-01-15T07:41:58;3.29;;;1.98;;
71290;SDS011;59073;51.994;4.448;2024-01-15T07:44:24;4.67;;;2.82;;
71290;SDS011;59073;51.994;4.448;2024-01-15T07:46:49;4.08;;;2.45;;
71290;SDS011;59073;51.994;4.448;2024-01-15T07:49:15;3.15;;;1.89;;
71290;SDS011;59073;51.994;4.448;2024-01-15T07:51:41;3.12;;;1.88;;
71290;SDS011;59073;51.994;4.448;2024-01-15T07:54:08;2.59;;;1.55;;
71290;SDS011;59073;51.994;4.448;2024-01-15T07:56:35;3.05;;;1.82;;
71290;SDS011;59073;51.994;4.448;2024-01-15T07:59:18;2.86;;;1.69;;
71290;SDS011;59073;51.994;4.448;2024-01-15T08:01:44;4.06;;;2.41;;
71290;SDS011;59073;51.994;4.448;2024-01-15T08:04:09;3.80;;;2.26;;
71290;SDS011;59073;51.994;4.448;2024-01-15T08:06:37;4.35;;;2.57;;
71290;SDS011;59073;51.994;4.448;2024-01-15T08:09:03;5.19;;;3.04;;
71290;SDS011;59073;51.994;4.448;2024-01-15T08:11:29;5.16;;;3.03;;
71290;SDS011;59073;51.994;4.448;2024-01-15T08:13:55;4.61;;;2.72;;
71290;SDS011;59073;51.994;4.448;2024-01-15T08:16:21;3.88;;;2.30;;
71290;SDS011;59073;51.994;4.448;2024-01-15T08:18:47;2.81;;;1.66;;
71290;SDS011;59073;51.994;4.448;2024-01-15T08:21:12;3.32;;;1.96;;
71290;SDS011;59073;51.994;4.448;2024-01-15T08:23:38;2.03;;;1.20;;
71290;SDS011;59073;51.994;4.448;2024-01-15T08:26:04;2.19;;;1.30;;
71290;SDS011;59073;51.994;4.448;2024-01-15T08:28:29;2.02;;;1.21;;
71290;SDS011;59073;51.994;4.448;2024-01-15T08:30:55;2.74;;;1.64;;
71290;SDS011;59073;51.994;4.448;2024-01-15T08:33:21;3.36;;;2.01;;
71290;SDS011;59073;51.994;4.448;2024-01-15T08:35:47;2.16;;;1.30;;
71290;SDS011;59073;51.994;4.448;2024-01-15T08:38:12;2.23;;;1.34;;
71290;SDS011;59073;51.994;4.448;2024-01-15T08:40:38;2.98;;;1.80;;
71290;SDS011;59073;51.994;4.448;2024-01-15T08:43:03;3.16;;;1.89;;
71290;SDS011;59073;51.994;4.448;2024-01-15T08:45:29;2.90;;;1.73;;
71290;SDS011;59073;51.994;4.448;2024-01-15T08:47:54;2.33;;;1.40;;
71290;SDS011;59073;51.994;4.448;2024-01-15T08:50:19;2.16;;;1.31;;
71290;SDS011;59073;51.994;4.448;2024-01-15T08:52:45;1.92;;;1.17;;
71290;SDS011;59073;51.994;4.448;2024-01-15T08:55:11;1.90;;;1.16;;
71290;SDS011;59073;51.994;4.448;2024-01-15T08:57:38;1.76;;;1.08;;
71290;SDS011;59073;51.994;4.448;2024-01-15T09:00:04;1.78;;;1.09;;
71290;SDS011;59073;51.994;4.448;2024-01-15T09:02:33;2.14;;;1.32;;
71290;SDS011;59073;51.994;4.448;2024-01-15T09:04:59;1.91;;;1.18;;
71290;SDS011;59073;51.994;4.448;2024-01-15T09:07:25;2.58;;;1.58;;
71290;SDS011;59073;51.994;4.448;2024-01-15T09:09:52;2.92;;;1.79;;
71290;SDS011;59073;51.994;4.448;2024-01-15T09:12:18;2.29;;;1.40;;
71290;SDS011;59073;51.994;4.448;2024-01-15T09:14:46;2.80;;;1.71;;
71290;SDS011;59073;51.994;4.448;2024-01-15T09:17:12;3.55;;;2.15;;
71290;SDS011;59073;51.994;4.448;2024-01-15T09:19:38;3.17;;;1.91;;
71290;SDS011;59073;51.994;4.448;2024-01-15T09:22:07;3.34;;;2.01;;
71290;SDS011;59073;51.994;4.448;2024-01-15T09:24:32;3.12;;;1.87;;
71290;SDS011;59073;51.994;4.448;2024-01-15T09:26:58;3.21;;;1.94;;
71290;SDS011;59073;51.994;4.448;2024-01-15T09:29:23;3.39;;;2.05;;
71290;SDS011;59073;51.994;4.448;2024-01-15T09:31:52;3.40;;;2.06;;
71290;SDS011;59073;51.994;4.448;2024-01-15T09:34:17;2.99;;;1.82;;
71290;SDS011;59073;51.994;4.448;2024-01-15T09:36:43;3.11;;;1.90;;
71290;SDS011;59073;51.994;4.448;2024-01-15T09:39:09;3.04;;;1.85;;
71290;SDS011;59073;51.994;4.448;2024-01-15T09:41:36;3.58;;;2.16;;
71290;SDS011;59073;51.994;4.448;2024-01-15T09:44:05;3.65;;;2.18;;
71290;SDS011;59073;51.994;4.448;2024-01-15T09:46:33;3.09;;;1.85;;
71290;SDS011;59073;51.994;4.448;2024-01-15T09:49:00;3.45;;;2.06;;
71290;SDS011;59073;51.994;4.448;2024-01-15T09:51:28;2.96;;;1.76;;
71290;SDS011;59073;51.994;4.448;2024-01-15T09:53:57;2.17;;;1.31;;
71290;SDS011;59073;51.994;4.448;2024-01-15T09:56:23;1.80;;;1.09;;
71290;SDS011;59073;51.994;4.448;2024-01-15T09:58:49;2.23;;;1.36;;
71290;SDS011;59073;51.994;4.448;2024-01-15T10:01:19;2.70;;;1.64;;
71290;SDS011;59073;51.994;4.448;2024-01-15T10:03:46;1.87;;;1.13;;
71290;SDS011;59073;51.994;4.448;2024-01-15T10:06:15;1.83;;;1.10;;
71290;SDS011;59073;51.994;4.448;2024-01-15T10:08:47;2.97;;;1.78;;
71290;SDS011;59073;51.994;4.448;2024-01-15T10:11:14;1.96;;;1.18;;
71290;SDS011;59073;51.994;4.448;2024-01-15T10:13:39;2.93;;;1.77;;
71290;SDS011;59073;51.994;4.448;2024-01-15T10:16:05;2.18;;;1.33;;
71290;SDS011;59073;51.994;4.448;2024-01-15T10:18:31;2.59;;;1.60;;
71290;SDS011;59073;51.994;4.448;2024-01-15T10:20:57;2.21;;;1.36;;
71290;SDS011;59073;51.994;4.448;2024-01-15T10:23:23;2.06;;;1.27;;
71290;SDS011;59073;51.994;4.448;2024-01-15T10:25:49;2.58;;;1.58;;
71290;SDS011;59073;51.994;4.448;2024-01-15T10:28:16;2.85;;;1.76;;
71290;SDS011;59073;51.994;4.448;2024-01-15T10:30:44;3.04;;;1.90;;
71290;SDS011;59073;51.994;4.448;2024-01-15T10:33:09;2.19;;;1.37;;
71290;SDS011;59073;51.994;4.448;2024-01-15T10:35:36;1.99;;;1.25;;
71290;SDS011;59073;51.994;4.448;2024-01-15T10:38:02;2.32;;;1.45;;
71290;SDS011;59073;51.994;4.448;2024-01-15T10:40:30;2.41;;;1.49;;
71290;SDS011;59073;51.994;4.448;2024-01-15T10:42:56;2.89;;;1.80;;
71290;SDS011;59073;51.994;4.448;2024-01-15T10:45:22;3.16;;;1.96;;
71290;SDS011;59073;51.994;4.448;2024-01-15T10:47:48;3.73;;;2.30;;
71290;SDS011;59073;51.994;4.448;2024-01-15T10:50:14;3.29;;;2.02;;
71290;SDS011;59073;51.994;4.448;2024-01-15T10:52:40;2.88;;;1.76;;
71290;SDS011;59073;51.994;4.448;2024-01-15T10:55:08;3.19;;;1.99;;
71290;SDS011;59073;51.994;4.448;2024-01-15T10:57:38;2.63;;;1.65;;
71290;SDS011;59073;51.994;4.448;2024-01-15T11:00:04;4.24;;;2.75;;
71290;SDS011;59073;51.994;4.448;2024-01-15T11:02:31;2.66;;;1.77;;
71290;SDS011;59073;51.994;4.448;2024-01-15T11:04:59;2.12;;;1.43;;
71290;SDS011;59073;51.994;4.448;2024-01-15T11:07:25;2.00;;;1.34;;
71290;SDS011;59073;51.994;4.448;2024-01-15T11:09:51;2.29;;;1.52;;
71290;SDS011;59073;51.994;4.448;2024-01-15T11:12:17;1.77;;;1.16;;
71290;SDS011;59073;51.994;4.448;2024-01-15T11:14:46;1.85;;;1.19;;
71290;SDS011;59073;51.994;4.448;2024-01-15T11:17:12;2.20;;;1.42;;
71290;SDS011;59073;51.994;4.448;2024-01-15T11:19:42;2.39;;;1.53;;
71290;SDS011;59073;51.994;4.448;2024-01-15T11:24:56;2.89;;;1.89;;
71290;SDS011;59073;51.994;4.448;2024-01-15T11:27:39;2.17;;;1.42;;
71290;SDS011;59073;51.994;4.448;2024-01-15T11:30:09;2.64;;;1.71;;
71290;SDS011;59073;51.994;4.448;2024-01-15T11:32:36;2.78;;;1.78;;
71290;SDS011;59073;51.994;4.448;2024-01-15T11:35:02;2.08;;;1.33;;
71290;SDS011;59073;51.994;4.448;2024-01-15T11:40:17;2.92;;;1.90;;
71290;SDS011;59073;51.994;4.448;2024-01-15T11:42:46;2.47;;;1.60;;
71290;SDS011;59073;51.994;4.448;2024-01-15T11:45:15;2.19;;;1.38;;
71290;SDS011;59073;51.994;4.448;2024-01-15T11:50:34;3.28;;;2.03;;
71290;SDS011;59073;51.994;4.448;2024-01-15T11:53:00;3.16;;;1.95;;
71290;SDS011;59073;51.994;4.448;2024-01-15T11:55:34;3.69;;;2.27;;
71290;SDS011;59073;51.994;4.448;2024-01-15T11:58:06;3.29;;;2.01;;
71290;SDS011;59073;51.994;4.448;2024-01-15T12:00:35;2.45;;;1.49;;
71290;SDS011;59073;51.994;4.448;2024-01-15T12:03:05;2.55;;;1.55;;
71290;SDS011;59073;51.994;4.448;2024-01-15T12:05:31;2.98;;;1.81;;
71290;SDS011;59073;51.994;4.448;2024-01-15T12:07:56;3.10;;;1.88;;
71290;SDS011;59073;51.994;4.448;2024-01-15T12:10:22;3.77;;;2.27;;
71290;SDS011;59073;51.994;4.448;2024-01-15T12:15:27;4.15;;;2.52;;
71290;SDS011;59073;51.994;4.448;2024-01-15T12:17:55;3.94;;;2.38;;
71290;SDS011;59073;51.994;4.448;2024-01-15T12:20:26;3.68;;;2.23;;
71290;SDS011;59073;51.994;4.448;2024-01-15T12:22:52;4.28;;;2.62;;
71290;SDS011;59073;51.994;4.448;2024-01-15T12:25:18;3.47;;;2.13;;
71290;SDS011;59073;51.994;4.448;2024-01-15T12:27:44;3.32;;;2.03;;
71290;SDS011;59073;51.994;4.448;2024-01-15T12:30:11;3.30;;;2.03;;
71290;SDS011;59073;51.994;4.448;2024-01-15T12:32:37;3.46;;;2.12;;
71290;SDS011;59073;51.994;4.448;2024-01-15T12:35:03;3.35;;;2.05;;
71290;SDS011;59073;51.994;4.448;2024-01-15T12:37:29;3.26;;;1.99;;
71290;SDS011;59073;51.994;4.448;2024-01-15T12:39:55;3.54;;;2.19;;
71290;SDS011;59073;51.994;4.448;2024-01-15T12:42:21;3.36;;;2.09;;
71290;SDS011;59073;51.994;4.448;2024-01-15T12:44:47;3.92;;;2.44;;
71290;SDS011;59073;51.994;4.448;2024-01-15T12:47:12;4.68;;;2.90;;
71290;SDS011;59073;51.994;4.448;2024-01-15T12:49:39;4.83;;;2.96;;
71290;SDS011;59073;51.994;4.448;2024-01-15T12:52:08;4.24;;;2.60;;
71290;SDS011;59073;51.994;4.448;2024-01-15T12:54:34;4.26;;;2.57;;
71290;SDS011;59073;51.994;4.448;2024-01-15T12:57:00;4.40;;;2.71;;
71290;SDS011;59073;51.994;4.448;2024-01-15T12:59:25;4.42;;;2.74;;
71290;SDS011;59073;51.994;4.448;2024-01-15T13:01:51;4.70;;;2.92;;
71290;SDS011;59073;51.994;4.448;2024-01-15T13:04:23;6.27;;;3.88;;
71290;SDS011;59073;51.994;4.448;2024-01-15T13:06:50;5.86;;;3.63;;
71290;SDS011;59073;51.994;4.448;2024-01-15T13:09:16;5.58;;;3.47;;
71290;SDS011;59073;51.994;4.448;2024-01-15T13:11:44;5.09;;;3.15;;
71290;SDS011;59073;51.994;4.448;2024-01-15T13:14:11;4.94;;;3.05;;
71290;SDS011;59073;51.994;4.448;2024-01-15T13:16:38;4.94;;;2.99;;
71290;SDS011;59073;51.994;4.448;2024-01-15T13:19:10;5.20;;;3.09;;
71290;SDS011;59073;51.994;4.448;2024-01-15T13:21:41;4.14;;;2.46;;
71290;SDS011;59073;51.994;4.448;2024-01-15T13:24:07;2.35;;;1.39;;
71290;SDS011;59073;51.994;4.448;2024-01-15T13:26:33;1.85;;;1.09;;
71290;SDS011;59073;51.994;4.448;2024-01-15T13:29:02;2.21;;;1.31;;
71290;SDS011;59073;51.994;4.448;2024-01-15T13:31:31;1.97;;;1.17;;
71290;SDS011;59073;51.994;4.448;2024-01-15T13:33:57;1.95;;;1.17;;
71290;SDS011;59073;51.994;4.448;2024-01-15T13:36:26;2.74;;;1.65;;
71290;SDS011;59073;51.994;4.448;2024-01-15T13:38:53;2.49;;;1.52;;
71290;SDS011;59073;51.994;4.448;2024-01-15T13:41:19;2.05;;;1.26;;
71290;SDS011;59073;51.994;4.448;2024-01-15T13:43:50;2.65;;;1.63;;
71290;SDS011;59073;51.994;4.448;2024-01-15T13:46:18;3.63;;;2.21;;
71290;SDS011;59073;51.994;4.448;2024-01-15T13:48:44;4.43;;;2.73;;
71290;SDS011;59073;51.994;4.448;2024-01-15T13:51:09;4.10;;;2.52;;
71290;SDS011;59073;51.994;4.448;2024-01-15T13:53:37;2.97;;;1.83;;
71290;SDS011;59073;51.994;4.448;2024-01-15T13:56:03;4.03;;;2.48;;
71290;SDS011;59073;51.994;4.448;2024-01-15T13:58:30;4.01;;;2.46;;
71290;SDS011;59073;51.994;4.448;2024-01-15T14:00:55;3.97;;;2.42;;
71290;SDS011;59073;51.994;4.448;2024-01-15T14:03:21;3.90;;;2.40;;
71290;SDS011;59073;51.994;4.448;2024-01-15T14:05:46;4.32;;;2.71;;
71290;SDS011;59073;51.994;4.448;2024-01-15T14:08:12;4.35;;;2.72;;
71290;SDS011;59073;51.994;4.448;2024-01-15T14:10:37;5.32;;;3.30;;
71290;SDS011;59073;51.994;4.448;2024-01-15T14:13:03;6.32;;;3.89;;
71290;SDS011;59073;51.994;4.448;2024-01-15T14:15:28;5.06;;;3.10;;
71290;SDS011;59073;51.994;4.448;2024-01-15T14:17:54;4.23;;;2.55;;
71290;SDS011;59073;51.994;4.448;2024-01-15T14:20:19;4.64;;;2.76;;
71290;SDS011;59073;51.994;4.448;2024-01-15T14:22:45;3.84;;;2.31;;
71290;SDS011;59073;51.994;4.448;2024-01-15T14:25:10;4.59;;;2.78;;
71290;SDS011;59073;51.994;4.448;2024-01-15T14:27:36;4.73;;;2.86;;
71290;SDS011;59073;51.994;4.448;2024-01-15T14:30:01;4.63;;;2.79;;
71290;SDS011;59073;51.994;4.448;2024-01-15T14:32:28;2.48;;;1.50;;
71290;SDS011;59073;51.994;4.448;2024-01-15T14:34:53;3.98;;;2.43;;
71290;SDS011;59073;51.994;4.448;2024-01-15T14:37:19;4.08;;;2.47;;
71290;SDS011;59073;51.994;4.448;2024-01-15T14:39:45;3.56;;;2.15;;
71290;SDS011;59073;51.994;4.448;2024-01-15T14:42:11;3.85;;;2.30;;
71290;SDS011;59073;51.994;4.448;2024-01-15T14:44:37;4.16;;;2.48;;
71290;SDS011;59073;51.994;4.448;2024-01-15T14:47:04;4.00;;;2.36;;
71290;SDS011;59073;51.994;4.448;2024-01-15T14:49:30;3.53;;;2.11;;
71290;SDS011;59073;51.994;4.448;2024-01-15T14:51:56;4.45;;;2.66;;